Monroe Regional Airport
KMLU : now visible

Airfield :











YOU CAN JOIN US ON...

 
LOGIN :

Register | Disclaimer

   EN    FR    IT 

 









Legend :    VFR   Marginal VFR   IFR   Intensive IFR   Very Intensive IFR
Visi :
Ceiling :
>= 8 km
>= 3000ft
5 to 8 km
1000 to 3000 ft
1500m to 5 km
500 to 1000 ft
800 to 1500m
200 to 500 ft
< 800m
< 200 ft
Symbols :   Thunderstorms  Fog  Heavy snow  Heavy precipitations  Wind > 20 kt






- Airport Elevation : 79 ft
- IATA code : MLU


KMLU - Monroe Regional

CURRENT METAR :
  • 280753Z AUTO 00000KT 1/2SM FG VV002 07/06 A2999 RMK AO2 SLP154 T00670061

EXPIRED METARs :
  • 280743Z AUTO 00000KT 1/4SM FG VV002 07/06 A2999 RMK AO2 T00670061
  • 280716Z AUTO 00000KT 3/4SM BR FEW046 07/06 A2999 RMK AO2 T00720061
  • 280706Z AUTO 00000KT 2 1/2SM BR FEW046 07/06 A2999 RMK AO2 T00720061
  • 280653Z AUTO 00000KT 1SM BR CLR 07/06 A2999 RMK AO2 SLP154 T00670061
  • 280651Z AUTO 00000KT 1 1/2SM BR CLR 07/06 A2999 RMK AO2
  • 280553Z AUTO 00000KT 6SM BR CLR 08/07 A2998 RMK AO2 SLP150 T00830072 10144 20078 402060078 53002
  • 280453Z AUTO 00000KT 8SM CLR 08/07 A2997 RMK AO2 SLP148 T00830072

TAF KMLU
Valid from the 28 at 08:00 until the 29 at 06:00 UTC


280747Z 2808/2906 00000KT 1/4SM FG VV002
FM281000 00000KT 1 1/2SM BR SCT110
FM281200 00000KT 1/2SM FG BKN003
FM281430 00000KT 1 1/2SM BR SCT005
FM281600 24005KT P6SM FEW015 FEW250
FM282200 17004KT P6SM SKC
KZFW FIR / North America



MET'MAP, your aeronautical weather chart ! - Copyright ORBIFLY December 2007 - Disclaimer

ORBIFLY MET'MAP TEAM :

Programming & Development : Alexandra Zaïnal
Original concept : Baudouin d'Aumeries
Technical & hardware support : Manuel Goepfert
Assistance : Marc-Olivier Méhu




SOURCES & CREDITS :

   NOAA       Earth
Advisory